createdAt,value
2022-12-15T06:26:26.235Z,92.58
2022-12-15T06:31:37.950Z,92.53
2022-12-15T06:34:05.696Z,92.33
2022-12-15T06:36:32.526Z,92.29
2022-12-15T06:39:00.785Z,92.55
2022-12-15T06:41:27.792Z,92.65
2022-12-15T06:43:58.671Z,92.91
2022-12-15T06:46:28.072Z,93.03
2022-12-15T06:48:55.242Z,93.00
2022-12-15T06:51:21.827Z,92.82
2022-12-15T06:53:52.353Z,92.62
2022-12-15T06:56:24.412Z,92.61
2022-12-15T06:58:55.454Z,92.26
2022-12-15T07:01:24.709Z,92.02
2022-12-15T07:03:53.484Z,91.88
2022-12-15T07:06:23.974Z,91.76
2022-12-15T07:08:52.896Z,91.72
2022-12-15T07:11:21.285Z,91.62
2022-12-15T07:13:54.281Z,91.51
2022-12-15T07:16:22.938Z,91.29
2022-12-15T07:18:50.127Z,91.30
2022-12-15T07:21:18.488Z,91.41
2022-12-15T07:23:56.789Z,91.58
2022-12-15T07:26:25.462Z,91.17
2022-12-15T07:28:53.928Z,91.19
2022-12-15T07:33:40.132Z,90.85
2022-12-15T07:36:08.614Z,91.15
2022-12-15T07:38:35.593Z,91.52
2022-12-15T07:41:04.163Z,91.94
2022-12-15T07:43:31.700Z,91.87
2022-12-15T07:46:04.125Z,91.91
2022-12-15T07:48:32.841Z,92.06
2022-12-15T07:51:08.424Z,92.19
2022-12-15T07:53:40.952Z,91.89
2022-12-15T07:56:09.968Z,91.87
2022-12-15T07:58:40.081Z,91.89
2022-12-15T08:01:12.806Z,92.20
2022-12-15T08:03:40.439Z,92.17
2022-12-15T08:06:12.685Z,91.96
2022-12-15T08:08:40.205Z,91.99
2022-12-15T08:11:08.763Z,92.05
2022-12-15T08:37:46.733Z,93.34
2022-12-15T08:40:13.893Z,93.47
2022-12-15T08:42:40.411Z,93.39
2022-12-15T08:45:08.694Z,93.37
2022-12-15T08:47:38.080Z,93.24
2022-12-15T08:50:07.752Z,93.34
2022-12-15T08:52:37.315Z,93.41
2022-12-15T08:55:04.057Z,93.27
2022-12-15T08:57:32.584Z,93.46
2022-12-15T08:59:59.223Z,93.56
2022-12-15T09:02:25.956Z,93.63
2022-12-15T09:04:52.798Z,93.69
2022-12-15T09:07:19.499Z,93.52
2022-12-15T09:09:50.258Z,93.44
2022-12-15T09:12:18.470Z,93.53
2022-12-15T09:14:45.147Z,93.51
2022-12-15T09:17:12.764Z,93.55
2022-12-15T09:19:39.575Z,93.47
2022-12-15T09:22:07.974Z,93.43
2022-12-15T09:24:35.538Z,93.21
2022-12-15T09:27:06.883Z,93.22
2022-12-15T09:29:34.402Z,93.15
2022-12-15T09:32:01.262Z,93.19
2022-12-15T09:34:28.095Z,93.11
2022-12-15T09:36:55.171Z,93.03
2022-12-15T09:39:21.987Z,93.07
2022-12-15T09:41:59.767Z,92.45
2022-12-15T09:44:28.054Z,92.53
2022-12-15T09:47:18.817Z,92.47
2022-12-15T09:49:57.306Z,92.30
2022-12-15T09:52:30.969Z,92.41
2022-12-15T09:54:58.855Z,92.05
2022-12-15T09:57:44.592Z,92.07
2022-12-15T10:00:37.990Z,92.25
2022-12-15T10:03:30.928Z,92.64
2022-12-15T10:06:16.985Z,92.47
2022-12-15T10:08:51.005Z,92.20
2022-12-15T10:11:36.211Z,92.15
2022-12-15T10:14:26.715Z,91.97
2022-12-15T10:17:17.189Z,91.87
2022-12-15T10:20:09.978Z,92.01
2022-12-15T10:22:37.780Z,91.96
2022-12-15T10:25:30.391Z,91.90
2022-12-15T10:27:57.370Z,92.23
2022-12-15T10:30:24.002Z,92.07
2022-12-15T10:33:26.178Z,91.96
2022-12-15T10:35:57.394Z,92.03
2022-12-15T10:38:42.569Z,92.13
2022-12-15T10:41:14.316Z,92.13
2022-12-15T10:43:43.861Z,92.28
2022-12-15T10:46:23.853Z,92.34
2022-12-15T10:48:59.420Z,91.86
2022-12-15T10:51:49.485Z,91.69
2022-12-15T10:54:18.357Z,91.40
2022-12-15T10:56:57.198Z,90.81
2022-12-15T10:59:35.999Z,90.44
2022-12-15T11:02:34.672Z,91.14
2022-12-15T11:05:02.719Z,90.82
2022-12-15T11:07:34.721Z,91.38
2022-12-15T11:10:09.501Z,91.38
2022-12-15T11:12:58.327Z,91.57
2022-12-15T11:15:25.392Z,90.80
2022-12-15T11:18:04.576Z,90.49
2022-12-15T11:20:35.818Z,90.89
2022-12-15T11:23:14.797Z,90.95
2022-12-15T11:25:51.488Z,90.05
2022-12-15T11:28:25.381Z,89.31
2022-12-15T11:31:01.951Z,89.11
2022-12-15T11:33:29.077Z,88.87
2022-12-15T11:36:29.354Z,87.72
2022-12-15T11:39:13.822Z,85.54
2022-12-15T11:42:01.334Z,82.85
2022-12-15T11:44:31.492Z,80.60
2022-12-15T11:47:20.339Z,79.60
2022-12-15T11:50:10.255Z,81.43
2022-12-15T11:52:49.204Z,82.52
2022-12-15T11:55:45.035Z,84.79
2022-12-15T11:58:30.886Z,85.55
2022-12-15T12:01:16.321Z,85.18
2022-12-15T12:04:11.169Z,82.83
2022-12-15T12:06:53.951Z,81.84
2022-12-15T12:09:32.245Z,82.40
2022-12-15T12:12:08.289Z,80.74
2022-12-15T12:14:34.786Z,78.38
2022-12-15T12:17:16.188Z,77.24
2022-12-15T12:19:50.849Z,76.24
2022-12-15T12:22:39.284Z,76.43
2022-12-15T12:25:14.760Z,77.29
2022-12-15T12:27:55.649Z,75.56
2022-12-15T12:30:26.261Z,76.72
2022-12-15T12:33:03.875Z,75.46
2022-12-15T12:35:42.716Z,73.13
2022-12-15T12:38:11.614Z,72.49
2022-12-15T12:40:40.936Z,73.24
2022-12-15T12:43:14.045Z,71.22
2022-12-15T12:45:40.958Z,71.90
2022-12-15T12:48:18.189Z,70.98
2022-12-15T12:50:45.046Z,71.27
2022-12-15T12:53:34.637Z,71.18
2022-12-15T12:56:01.612Z,69.97
2022-12-15T12:58:34.539Z,70.38
2022-12-15T13:01:10.463Z,69.55
2022-12-15T13:03:43.650Z,68.43
2022-12-15T13:06:41.337Z,68.97
2022-12-15T13:09:17.106Z,71.76
2022-12-15T13:11:51.197Z,73.09
2022-12-15T13:14:44.704Z,74.84
2022-12-15T13:20:24.489Z,75.68
2022-12-15T13:22:52.985Z,75.97
2022-12-15T13:25:36.666Z,76.26
2022-12-15T13:28:18.841Z,74.72
2022-12-15T13:31:13.643Z,72.15
2022-12-15T13:33:49.632Z,71.76
2022-12-15T13:36:40.220Z,73.04
2022-12-15T13:39:18.784Z,70.07
2022-12-15T13:44:54.968Z,70.20
2022-12-15T13:47:31.300Z,72.80
2022-12-15T13:50:30.913Z,74.41
2022-12-15T13:56:00.546Z,72.88
2022-12-15T13:58:29.731Z,72.49
2022-12-15T14:00:58.021Z,72.81
2022-12-15T14:03:26.189Z,76.19
2022-12-15T14:08:44.472Z,78.50
2022-12-15T14:11:51.361Z,77.65
2022-12-15T14:14:18.368Z,76.93
2022-12-15T14:16:46.553Z,76.19
2022-12-15T14:19:17.888Z,75.39
2022-12-15T14:21:56.730Z,75.16
2022-12-15T14:24:40.711Z,76.01
2022-12-15T14:27:08.637Z,77.27
2022-12-15T14:29:35.455Z,78.82
2022-12-15T14:32:02.720Z,80.61
2022-12-15T14:34:37.167Z,80.35
2022-12-15T14:37:08.192Z,80.39
2022-12-15T14:39:50.264Z,80.29
2022-12-15T14:42:26.232Z,80.15
2022-12-15T14:44:57.730Z,80.35
2022-12-15T14:47:28.029Z,81.02
2022-12-15T14:49:58.063Z,81.47
2022-12-15T14:52:36.196Z,81.74
2022-12-15T14:55:22.748Z,81.97
2022-12-15T14:57:52.705Z,81.87
2022-12-15T15:00:27.577Z,82.83
2022-12-15T15:03:09.715Z,76.56
2022-12-15T15:05:51.568Z,83.98
2022-12-15T15:08:35.455Z,84.35
2022-12-15T15:11:18.686Z,84.38
2022-12-15T15:13:47.203Z,84.74
2022-12-15T15:16:17.980Z,85.13
2022-12-15T15:18:48.595Z,85.56
2022-12-15T15:21:25.226Z,85.79
2022-12-15T15:24:18.115Z,85.96
2022-12-15T15:26:44.725Z,86.12
2022-12-15T15:29:46.667Z,86.37
2022-12-15T15:32:21.954Z,86.23
2022-12-15T15:34:49.270Z,86.12
2022-12-15T15:37:20.216Z,86.36
2022-12-15T15:39:51.338Z,86.86
2022-12-15T15:42:17.936Z,86.99
2022-12-15T15:44:45.061Z,86.99
2022-12-15T15:47:23.697Z,87.02
2022-12-15T15:49:51.356Z,87.40
2022-12-15T15:52:18.301Z,87.65
2022-12-15T15:54:45.878Z,87.64
2022-12-15T15:57:15.449Z,87.95
2022-12-15T15:59:44.205Z,88.10
2022-12-15T16:02:16.272Z,88.28
2022-12-15T16:04:44.239Z,88.60
2022-12-15T16:07:20.511Z,88.74
2022-12-15T16:09:47.137Z,89.02
2022-12-15T16:12:28.692Z,89.12
2022-12-15T16:14:58.378Z,89.33
2022-12-15T16:17:26.534Z,89.46
2022-12-15T16:22:35.034Z,89.63
2022-12-15T16:27:43.148Z,89.73
2022-12-15T16:32:57.891Z,89.84
2022-12-15T16:35:26.098Z,89.97
2022-12-15T16:37:52.802Z,89.86
2022-12-15T16:40:27.233Z,90.08
2022-12-15T16:42:59.075Z,89.92
2022-12-15T16:45:27.955Z,90.11
2022-12-15T16:47:55.727Z,90.23
2022-12-15T16:56:01.714Z,90.22
2022-12-15T17:01:11.854Z,90.44
2022-12-15T17:06:19.501Z,90.89
2022-12-15T17:08:52.898Z,90.65
2022-12-15T17:11:23.202Z,90.58
2022-12-15T17:13:51.421Z,91.00
2022-12-15T17:16:19.982Z,91.17
2022-12-15T17:24:25.130Z,91.46
2022-12-15T17:29:32.870Z,91.29
2022-12-15T17:34:40.021Z,91.57
2022-12-15T17:39:51.843Z,91.91
2022-12-15T17:45:01.290Z,92.10
2022-12-15T17:50:11.817Z,92.49
2022-12-15T17:52:38.354Z,92.35
2022-12-15T17:55:16.775Z,92.58
2022-12-15T17:57:43.317Z,92.87
2022-12-15T18:00:20.900Z,92.76
2022-12-15T18:02:49.005Z,92.76
2022-12-15T18:05:16.972Z,92.78
2022-12-15T18:07:44.110Z,92.74
2022-12-15T18:10:31.742Z,92.74
2022-12-15T18:12:58.988Z,92.60
2022-12-15T18:15:31.550Z,92.60
2022-12-15T18:17:59.067Z,92.40
2022-12-15T18:20:26.049Z,92.50
2022-12-15T18:22:54.567Z,92.57
2022-12-15T18:25:26.778Z,92.30
2022-12-15T18:27:54.711Z,92.51
2022-12-15T18:30:22.867Z,92.67
2022-12-15T18:32:51.448Z,92.72
2022-12-15T18:35:28.533Z,92.69
2022-12-15T18:37:55.067Z,92.70
2022-12-15T18:40:28.094Z,92.79
2022-12-15T18:42:54.621Z,92.86
2022-12-15T18:45:28.234Z,92.69
2022-12-15T18:47:55.120Z,92.83
2022-12-15T18:50:24.259Z,92.83
2022-12-15T18:53:02.426Z,92.85
2022-12-15T19:18:05.745Z,92.64
2022-12-15T19:20:51.203Z,92.63
2022-12-15T19:23:18.429Z,92.79
2022-12-15T20:03:48.048Z,92.67
2022-12-15T20:06:25.148Z,92.94
2022-12-15T20:08:57.253Z,92.88
2022-12-15T20:27:41.461Z,92.39
2022-12-15T20:30:17.289Z,92.36
2022-12-15T20:32:43.728Z,92.40
2022-12-15T20:35:14.299Z,92.64
2022-12-15T20:37:48.470Z,92.57
2022-12-15T20:40:16.723Z,92.59
2022-12-15T20:42:43.284Z,92.55
2022-12-15T20:45:12.677Z,92.50
2022-12-15T20:47:40.987Z,92.56
2022-12-15T20:50:22.323Z,92.71
2022-12-15T20:52:48.822Z,92.53
2022-12-15T20:55:15.545Z,92.83
2022-12-15T20:57:42.036Z,93.04
2022-12-15T21:00:09.231Z,92.91
2022-12-15T21:02:36.394Z,92.97
2022-12-15T21:05:03.619Z,92.98
2022-12-15T21:07:30.158Z,92.66
2022-12-15T21:09:56.726Z,92.82
2022-12-15T21:12:26.550Z,92.77
2022-12-15T21:14:56.041Z,92.47
2022-12-15T21:17:28.374Z,92.69
2022-12-15T21:19:54.993Z,92.83
2022-12-15T21:22:27.006Z,92.26
2022-12-15T21:24:55.636Z,92.55
2022-12-15T21:27:22.470Z,92.72
2022-12-15T21:29:52.663Z,92.70
2022-12-15T21:32:19.938Z,92.93
2022-12-15T21:34:46.496Z,93.07
2022-12-15T21:37:25.514Z,93.30
2022-12-15T21:39:52.437Z,93.08
2022-12-15T21:42:19.652Z,93.10
2022-12-15T21:44:46.115Z,92.97
2022-12-15T21:47:52.617Z,93.15
2022-12-15T21:50:21.416Z,93.23
2022-12-15T21:52:48.308Z,92.80
2022-12-15T21:55:21.314Z,92.71
2022-12-15T21:57:47.854Z,92.84
2022-12-15T22:00:17.638Z,92.76
2022-12-15T22:02:45.796Z,92.38
2022-12-15T22:05:22.630Z,92.24
2022-12-15T22:07:52.526Z,92.28
2022-12-15T22:10:25.178Z,92.39
2022-12-15T22:15:40.246Z,92.98
2022-12-15T22:18:14.608Z,92.95
2022-12-15T22:20:45.869Z,92.80
2022-12-15T22:23:12.346Z,92.18
2022-12-15T22:25:38.826Z,92.43
2022-12-15T22:28:05.518Z,92.31
2022-12-15T22:30:32.113Z,92.10
2022-12-15T22:32:58.896Z,92.11
2022-12-15T22:35:26.650Z,92.11
2022-12-15T22:37:56.386Z,91.94
2022-12-15T22:40:24.032Z,91.90
2022-12-15T22:42:54.990Z,92.06
2022-12-15T22:45:23.975Z,92.27
2022-12-15T22:47:52.316Z,92.28
2022-12-15T22:50:23.332Z,92.10
2022-12-15T22:52:50.257Z,91.72
2022-12-15T22:55:20.034Z,91.64
2022-12-15T22:58:09.531Z,91.80
2022-12-15T23:00:36.099Z,91.98
2022-12-15T23:03:02.756Z,92.25
2022-12-15T23:05:29.346Z,92.32
2022-12-15T23:07:55.924Z,92.51
2022-12-15T23:10:40.993Z,92.53
2022-12-15T23:13:07.473Z,92.01
2022-12-15T23:15:53.050Z,92.27
2022-12-15T23:18:21.602Z,92.85
2022-12-15T23:20:48.152Z,92.83
2022-12-15T23:23:15.429Z,92.86
2022-12-15T23:25:49.753Z,93.02
2022-12-15T23:28:16.194Z,93.42
2022-12-15T23:30:42.805Z,92.80
2022-12-15T23:33:09.300Z,92.93
2022-12-15T23:35:39.789Z,93.36
2022-12-15T23:38:06.321Z,93.37
2022-12-15T23:40:32.892Z,93.78
2022-12-15T23:42:59.357Z,93.79
2022-12-15T23:45:25.912Z,93.66
2022-12-15T23:47:52.376Z,93.50
2022-12-15T23:50:20.622Z,93.38
2022-12-15T23:52:50.360Z,93.38
2022-12-15T23:55:18.290Z,93.38
2022-12-15T23:57:44.819Z,93.54
